Time;durP1;ratioP1;P1;durP2;ratioP2;P2;SDS_P1;SDS_P2;PMS_P1;PMS_P2;Temp;Humidity;BMP_temperature;BMP_pressure;BME280_temperature;BME280_humidity;BME280_pressure;Samples;Min_cycle;Max_cycle;Signal;HPM_P1;HPM_P2
2024/01/27 00:00:36;;;;;;;;;;;;;;;6.35;47.31;100126.94;4972072;28;19971;-90
2024/01/27 00:03:02;;;;;;;;;;;;;;;6.37;47.12;100129.41;4973250;28;19921;-90
2024/01/27 00:05:28;;;;;;;;;;;;;;;6.33;47.39;100120.16;4955995;28;20009;-90
2024/01/27 00:07:53;;;;;;;;;;;;;;;6.34;47.20;100127.88;4972028;28;20370;-90
2024/01/27 00:10:18;;;;;;;;;;;;;;;6.38;47.90;100133.69;4955750;28;19978;-90
2024/01/27 00:12:44;;;;;;;;;;;;;;;6.37;47.90;100126.78;4973032;28;19965;-90
2024/01/27 00:15:09;;;;;;;;;;;;;;;6.38;47.52;100125.81;4955742;28;19918;-90
2024/01/27 00:17:35;;;;;;;;;;;;;;;6.40;47.66;100120.44;4973053;28;19914;-90
2024/01/27 00:20:01;;;;;;;;;;;;;;;6.37;47.46;100121.53;4973011;28;20406;-90
2024/01/27 00:22:26;;;;;;;;;;;;;;;6.34;47.81;100125.28;4971462;28;19918;-90
2024/01/27 00:24:51;;;;;;;;;;;;;;;6.37;47.95;100125.00;4971796;28;19941;-90
2024/01/27 00:27:16;;;;;;;;;;;;;;;6.41;47.32;100122.09;4973036;28;20041;-90
2024/01/27 00:29:42;;;;;;;;;;;;;;;6.41;47.50;100127.34;4955675;28;19962;-90
2024/01/27 00:32:07;;;;;;;;;;;;;;;6.36;47.58;100125.13;4955632;28;19914;-89
2024/01/27 00:34:33;;;;;;;;;;;;;;;6.34;47.32;100132.31;4972629;28;20013;-90
2024/01/27 00:36:58;;;;;;;;;;;;;;;6.36;48.17;100136.44;4955530;28;19922;-89
2024/01/27 00:39:23;;;;;;;;;;;;;;;6.37;47.44;100145.16;4973014;28;19910;-90
2024/01/27 00:41:48;;;;;;;;;;;;;;;6.31;47.75;100138.66;4973157;28;19918;-90
2024/01/27 00:44:14;;;;;;;;;;;;;;;6.29;47.43;100131.88;4972494;28;19918;-90
2024/01/27 00:46:39;;;;;;;;;;;;;;;6.31;47.66;100135.19;4955833;28;20348;-90
2024/01/27 00:49:04;;;;;;;;;;;;;;;6.26;47.55;100125.13;4972134;28;19988;-90
2024/01/27 00:51:30;;;;;;;;;;;;;;;6.22;47.76;100121.13;4974670;28;19914;-89
2024/01/27 00:53:55;;;;;;;;;;;;;;;6.16;47.35;100113.78;4976868;28;19985;-90
2024/01/27 00:56:21;;;;;;;;;;;;;;;6.21;48.41;100126.50;4975408;28;19914;-90
2024/01/27 00:58:46;;;;;;;;;;;;;;;6.18;47.48;100130.22;4975373;28;19914;-90
2024/01/27 01:01:11;;;;;;;;;;;;;;;6.05;48.65;100117.38;4975560;28;20367;-89
2024/01/27 01:03:37;;;;;;;;;;;;;;;6.12;47.99;100117.66;4959321;28;19918;-89
2024/01/27 01:06:03;;;;;;;;;;;;;;;6.14;47.86;100113.09;4976787;28;19914;-89
2024/01/27 01:08:28;;;;;;;;;;;;;;;6.17;47.75;100120.69;4975590;28;19969;-89
2024/01/27 01:10:53;;;;;;;;;;;;;;;6.19;48.07;100115.31;4976505;28;19918;-89
2024/01/27 01:13:18;;;;;;;;;;;;;;;6.21;47.93;100116.84;4976728;28;19925;-90
2024/01/27 01:15:44;;;;;;;;;;;;;;;6.25;47.98;100109.53;4975418;28;20322;-89
2024/01/27 01:18:09;;;;;;;;;;;;;;;6.24;48.36;100105.25;4976713;28;20417;-89
2024/01/27 01:20:34;;;;;;;;;;;;;;;6.21;48.42;100101.09;4976783;28;19914;-88
2024/01/27 01:23:02;;;;;;;;;;;;;;;6.18;47.65;100097.94;4975428;28;20476;-89
2024/01/27 01:25:28;;;;;;;;;;;;;;;6.14;48.06;100100.00;4974877;28;19921;-89
2024/01/27 01:27:53;;;;;;;;;;;;;;;6.12;48.45;100101.91;4976064;28;20299;-88
2024/01/27 01:30:18;;;;;;;;;;;;;;;6.09;48.01;100089.09;4958714;28;19956;-89
2024/01/27 01:32:44;;;;;;;;;;;;;;;6.10;48.56;100085.50;4974737;28;19914;-90
2024/01/27 01:35:12;;;;;;;;;;;;;;;6.08;48.47;100087.44;4975647;28;19977;-90
2024/01/27 01:37:37;;;;;;;;;;;;;;;6.01;48.36;100078.44;4958861;28;19924;-89
2024/01/27 01:40:02;;;;;;;;;;;;;;;5.95;48.83;100074.56;4958484;28;19981;-89
2024/01/27 01:42:29;;;;;;;;;;;;;;;5.94;48.97;100078.13;4975965;28;19922;-90
2024/01/27 01:44:54;;;;;;;;;;;;;;;5.92;48.99;100071.38;4974583;28;20437;-89
2024/01/27 01:47:19;;;;;;;;;;;;;;;5.89;49.17;100071.59;4974476;28;19986;-90
2024/01/27 01:49:45;;;;;;;;;;;;;;;5.90;48.95;100070.69;4976000;28;20296;-90
2024/01/27 01:52:10;;;;;;;;;;;;;;;5.91;48.87;100072.34;4974447;28;19914;-90
2024/01/27 01:54:36;;;;;;;;;;;;;;;5.93;49.28;100073.84;4974578;28;19914;-90
2024/01/27 01:57:02;;;;;;;;;;;;;;;5.97;48.75;100069.19;4974467;28;19980;-90
2024/01/27 01:59:27;;;;;;;;;;;;;;;5.97;49.08;100070.03;4975374;28;19914;-90
2024/01/27 02:01:52;;;;;;;;;;;;;;;5.97;48.48;100064.78;4957442;28;20049;-90
2024/01/27 02:04:18;;;;;;;;;;;;;;;5.96;48.40;100076.22;4958087;28;20013;-90
2024/01/27 02:06:43;;;;;;;;;;;;;;;5.94;49.06;100066.81;4975343;28;20289;-90
2024/01/27 02:09:09;;;;;;;;;;;;;;;5.93;49.20;100067.78;4957931;28;19994;-90
2024/01/27 02:11:35;;;;;;;;;;;;;;;5.91;49.00;100067.09;4957965;28;19918;-90
2024/01/27 02:14:00;;;;;;;;;;;;;;;5.87;48.41;100061.25;4975592;28;19985;-90
2024/01/27 02:16:25;;;;;;;;;;;;;;;5.90;48.91;100065.44;4974201;28;19921;-89
2024/01/27 02:18:51;;;;;;;;;;;;;;;5.87;49.06;100057.81;4975416;28;19989;-89
2024/01/27 02:21:16;;;;;;;;;;;;;;;5.88;49.27;100065.53;4975547;28;19918;-91
2024/01/27 02:23:41;;;;;;;;;;;;;;;5.85;48.67;100063.19;4975231;28;20538;-90
2024/01/27 02:26:07;;;;;;;;;;;;;;;5.83;49.21;100057.25;4975400;28;19965;-90
2024/01/27 02:28:33;;;;;;;;;;;;;;;5.79;49.57;100050.63;4975234;28;20411;-90
2024/01/27 02:30:59;;;;;;;;;;;;;;;5.79;49.59;100047.19;4973872;28;19941;-90
2024/01/27 02:33:25;;;;;;;;;;;;;;;5.77;49.11;100049.94;4973790;28;19953;-89
2024/01/27 02:35:50;;;;;;;;;;;;;;;5.75;49.10;100041.38;4974816;28;19957;-90
2024/01/27 02:38:15;;;;;;;;;;;;;;;5.77;49.40;100054.34;4957313;28;20470;-89
2024/01/27 02:40:41;;;;;;;;;;;;;;;5.71;49.46;100056.53;4974704;28;19914;-89
2024/01/27 02:43:06;;;;;;;;;;;;;;;5.69;49.68;100048.00;4974721;28;19929;-89
2024/01/27 02:45:31;;;;;;;;;;;;;;;5.66;49.68;100044.81;4973544;28;19939;-89
2024/01/27 02:47:56;;;;;;;;;;;;;;;5.67;49.26;100055.16;4974626;28;19914;-89
2024/01/27 02:50:22;;;;;;;;;;;;;;;5.68;49.75;100067.28;4974618;28;19939;-90
2024/01/27 02:52:47;;;;;;;;;;;;;;;5.70;49.76;100065.38;4957260;28;20410;-88
2024/01/27 02:55:12;;;;;;;;;;;;;;;5.66;49.67;100063.16;4974358;28;20045;-89
2024/01/27 02:57:38;;;;;;;;;;;;;;;5.62;49.49;100064.38;4974939;28;19925;-89
2024/01/27 03:00:04;;;;;;;;;;;;;;;5.56;49.87;100065.75;4973133;28;20391;-90
2024/01/27 03:02:30;;;;;;;;;;;;;;;5.48;50.21;100076.06;4973099;28;19973;-89
2024/01/27 03:04:55;;;;;;;;;;;;;;;5.46;50.04;100075.34;4973149;28;20288;-91
2024/01/27 03:07:20;;;;;;;;;;;;;;;5.46;50.05;100069.28;4973166;28;19914;-89
2024/01/27 03:09:46;;;;;;;;;;;;;;;5.49;50.06;100061.16;4973161;28;19914;-89
2024/01/27 03:12:11;;;;;;;;;;;;;;;5.48;50.03;100060.34;4973866;28;19915;-90
2024/01/27 03:14:36;;;;;;;;;;;;;;;5.46;49.76;100059.63;4973807;28;19978;-89
2024/01/27 03:17:02;;;;;;;;;;;;;;;5.46;50.17;100048.34;4972932;28;19958;-88
2024/01/27 03:19:27;;;;;;;;;;;;;;;5.43;50.33;100052.06;4956844;28;19918;-89
2024/01/27 03:21:52;;;;;;;;;;;;;;;5.40;50.13;100055.75;4974182;28;19918;-89
2024/01/27 03:24:18;;;;;;;;;;;;;;;5.39;50.25;100055.91;4974209;28;19914;-89
2024/01/27 03:26:43;;;;;;;;;;;;;;;5.38;50.17;100051.63;4972723;28;19976;-90
2024/01/27 03:29:08;;;;;;;;;;;;;;;5.36;50.40;100045.69;4973939;28;19918;-89
2024/01/27 03:31:34;;;;;;;;;;;;;;;5.33;50.46;100040.72;4973990;28;19914;-90
2024/01/27 03:34:00;;;;;;;;;;;;;;;5.32;50.33;100028.59;4972383;28;19922;-89
2024/01/27 03:36:25;;;;;;;;;;;;;;;5.30;50.74;100025.28;4974032;28;19925;-90
2024/01/27 03:38:50;;;;;;;;;;;;;;;5.28;50.75;100020.16;4972473;28;19914;-89
2024/01/27 03:41:16;;;;;;;;;;;;;;;5.28;50.75;100019.34;4973828;28;19907;-90
2024/01/27 03:43:41;;;;;;;;;;;;;;;5.28;50.23;100028.03;4972274;28;20396;-90
2024/01/27 03:46:06;;;;;;;;;;;;;;;5.23;50.37;100018.91;4973571;28;19914;-89
2024/01/27 03:48:32;;;;;;;;;;;;;;;5.22;50.86;100025.09;4972392;28;19920;-89
2024/01/27 03:50:57;;;;;;;;;;;;;;;5.22;50.72;100017.25;4973530;28;19937;-89
2024/01/27 03:53:22;;;;;;;;;;;;;;;5.20;50.57;100016.53;4973529;28;20418;-89
2024/01/27 03:55:47;;;;;;;;;;;;;;;5.18;50.31;100021.06;4972157;28;19914;-89
2024/01/27 03:58:13;;;;;;;;;;;;;;;5.15;50.49;100029.19;4973673;28;19938;-90
2024/01/27 04:00:38;;;;;;;;;;;;;;;5.11;50.47;100026.00;4973758;28;19914;-89
2024/01/27 04:03:03;;;;;;;;;;;;;;;5.07;50.52;100028.03;4956206;28;20306;-88
2024/01/27 04:05:29;;;;;;;;;;;;;;;5.07;50.56;100020.19;4972457;28;19921;-89
2024/01/27 04:07:55;;;;;;;;;;;;;;;5.05;50.46;100016.06;4972226;28;20008;-90
2024/01/27 04:10:21;;;;;;;;;;;;;;;5.04;50.52;100017.00;4973401;28;19921;-90
2024/01/27 04:12:46;;;;;;;;;;;;;;;5.04;50.62;100030.91;4973483;28;19921;-89
2024/01/27 04:15:12;;;;;;;;;;;;;;;5.02;50.50;100032.84;4972055;28;19914;-89
2024/01/27 04:17:38;;;;;;;;;;;;;;;5.00;50.61;100040.00;4956093;28;19996;-88
2024/01/27 04:20:04;;;;;;;;;;;;;;;5.00;50.57;100031.31;4972002;28;19941;-90
2024/01/27 04:22:29;;;;;;;;;;;;;;;4.97;50.42;100031.56;4972854;28;20384;-89
2024/01/27 04:24:55;;;;;;;;;;;;;;;4.94;50.60;100027.44;4955411;28;19921;-89
2024/01/27 04:27:20;;;;;;;;;;;;;;;4.92;50.57;100026.72;4973412;28;19914;-89
2024/01/27 04:29:45;;;;;;;;;;;;;;;4.90;50.77;100020.81;4972030;28;20356;-88
2024/01/27 04:32:12;;;;;;;;;;;;;;;4.87;50.72;100012.38;4971770;28;19957;-87
2024/01/27 04:34:38;;;;;;;;;;;;;;;4.86;50.86;99995.84;4971566;28;19930;-87
2024/01/27 04:37:03;;;;;;;;;;;;;;;4.88;50.81;100007.03;4971999;28;20984;-89
2024/01/27 04:39:29;;;;;;;;;;;;;;;4.88;51.18;99999.16;4955995;28;19925;-89
2024/01/27 04:41:54;;;;;;;;;;;;;;;4.86;50.92;100003.72;4971833;28;20315;-89
2024/01/27 04:44:20;;;;;;;;;;;;;;;4.85;50.99;100002.03;4955722;28;19917;-89
2024/01/27 04:46:45;;;;;;;;;;;;;;;4.78;50.64;100004.34;4971700;28;19953;-89
2024/01/27 04:49:11;;;;;;;;;;;;;;;4.79;51.02;99998.16;4971802;28;19937;-88
2024/01/27 04:51:36;;;;;;;;;;;;;;;4.81;50.81;100005.06;4972919;28;19968;-89
2024/01/27 04:54:02;;;;;;;;;;;;;;;4.76;51.06;99994.97;4972838;28;20380;-89
2024/01/27 04:56:27;;;;;;;;;;;;;;;4.76;50.94;99993.19;4972957;28;19914;-89
2024/01/27 04:58:52;;;;;;;;;;;;;;;4.77;51.06;99992.22;4955848;28;19921;-88
2024/01/27 05:01:17;;;;;;;;;;;;;;;4.81;51.27;99999.81;4973340;28;19914;-89
2024/01/27 05:03:43;;;;;;;;;;;;;;;4.82;51.10;99997.06;4971641;28;19918;-89
2024/01/27 05:06:09;;;;;;;;;;;;;;;4.81;50.92;99986.75;4971866;28;19976;-88
2024/01/27 05:08:35;;;;;;;;;;;;;;;4.83;50.92;99983.03;4972926;28;19914;-89
2024/01/27 05:11:00;;;;;;;;;;;;;;;4.84;51.02;99992.53;4971652;28;19914;-89
2024/01/27 05:13:25;;;;;;;;;;;;;;;4.84;50.94;99989.94;4971539;28;19914;-89
2024/01/27 05:15:51;;;;;;;;;;;;;;;4.87;50.86;99999.31;4971432;28;19914;-88
2024/01/27 05:18:16;;;;;;;;;;;;;;;4.87;51.23;99981.81;4971259;28;19997;-89
2024/01/27 05:20:41;;;;;;;;;;;;;;;4.87;51.05;99981.00;4972630;28;19922;-88
2024/01/27 05:23:07;;;;;;;;;;;;;;;4.85;51.05;99981.13;4972654;28;20284;-89
2024/01/27 05:25:32;;;;;;;;;;;;;;;4.83;51.04;99987.44;4972838;28;19914;-88
2024/01/27 05:27:58;;;;;;;;;;;;;;;4.84;51.02;99992.53;4971549;28;20319;-89
2024/01/27 05:30:23;;;;;;;;;;;;;;;4.80;51.00;99991.16;4972609;28;19993;-89
2024/01/27 05:32:48;;;;;;;;;;;;;;;4.81;51.19;99986.75;4972727;28;19968;-88
2024/01/27 05:35:14;;;;;;;;;;;;;;;4.77;51.46;99979.16;4971232;28;20319;-90
2024/01/27 05:37:39;;;;;;;;;;;;;;;4.73;51.44;99980.38;4974266;28;20288;-90
2024/01/27 05:40:06;;;;;;;;;;;;;;;4.71;51.54;99981.47;4958779;28;20001;-89
2024/01/27 05:42:31;;;;;;;;;;;;;;;4.76;51.50;99987.97;4976257;28;20455;-89
2024/01/27 05:44:56;;;;;;;;;;;;;;;4.78;51.54;99980.00;4976068;28;19957;-89
2024/01/27 05:47:21;;;;;;;;;;;;;;;4.82;51.69;99980.56;4974652;28;19918;-88
2024/01/27 05:49:47;;;;;;;;;;;;;;;4.84;51.61;99979.47;4958518;28;20315;-89
2024/01/27 05:52:13;;;;;;;;;;;;;;;4.86;51.04;99971.47;4975792;28;19914;-89
2024/01/27 05:54:39;;;;;;;;;;;;;;;4.90;50.89;99965.03;4958354;28;19914;-88
2024/01/27 05:57:04;;;;;;;;;;;;;;;4.94;50.43;99954.16;4975910;28;19914;-89
2024/01/27 05:59:30;;;;;;;;;;;;;;;4.94;50.52;99956.78;4975629;28;20446;-89
2024/01/27 06:01:57;;;;;;;;;;;;;;;4.97;50.34;99961.75;4974410;28;19918;-89
2024/01/27 06:04:22;;;;;;;;;;;;;;;5.01;50.27;99968.38;4974473;28;19914;-89
2024/01/27 06:06:48;;;;;;;;;;;;;;;5.04;50.00;99967.28;4958250;28;20391;-87
2024/01/27 06:09:13;;;;;;;;;;;;;;;5.04;50.01;99973.34;4958185;28;19989;-89
2024/01/27 06:11:39;;;;;;;;;;;;;;;5.06;50.03;99965.38;4975333;28;20001;-89
2024/01/27 06:14:04;;;;;;;;;;;;;;;5.05;49.83;99975.00;4973960;28;19953;-89
2024/01/27 06:16:30;;;;;;;;;;;;;;;5.07;50.24;99978.31;4975232;28;20359;-90
2024/01/27 06:18:56;;;;;;;;;;;;;;;5.11;50.05;99984.13;4975456;28;19921;-89
2024/01/27 06:21:21;;;;;;;;;;;;;;;5.11;50.17;99990.19;4974004;28;19914;-90
2024/01/27 06:23:47;;;;;;;;;;;;;;;5.16;49.81;99996.81;4974063;28;19918;-90
2024/01/27 06:26:12;;;;;;;;;;;;;;;5.13;49.82;99999.69;4958024;28;20007;-89
2024/01/27 06:28:38;;;;;;;;;;;;;;;5.14;50.39;99999.56;4973856;28;20012;-89
2024/01/27 06:31:04;;;;;;;;;;;;;;;5.19;50.04;99999.16;4974175;28;19922;-89
2024/01/27 06:33:29;;;;;;;;;;;;;;;5.23;49.98;100000.59;4973724;28;19953;-91
2024/01/27 06:35:54;;;;;;;;;;;;;;;5.28;49.71;99991.38;4975497;28;20413;-90
2024/01/27 06:38:19;;;;;;;;;;;;;;;5.32;49.90;99997.16;4973684;28;19921;-89
2024/01/27 06:40:45;;;;;;;;;;;;;;;5.37;49.81;100006.28;4973662;28;19952;-90
2024/01/27 06:43:12;;;;;;;;;;;;;;;5.40;49.70;99995.53;4974767;28;19925;-89
2024/01/27 06:45:37;;;;;;;;;;;;;;;5.43;50.00;100015.38;4974759;28;19914;-89
2024/01/27 06:48:03;;;;;;;;;;;;;;;5.43;49.06;100013.59;4974521;28;19926;-89
2024/01/27 06:50:28;;;;;;;;;;;;;;;5.43;49.15;100018.84;4974778;28;19914;-89
2024/01/27 06:52:53;;;;;;;;;;;;;;;5.45;49.46;100017.88;4957476;28;20414;-90
2024/01/27 06:55:19;;;;;;;;;;;;;;;5.47;49.64;100024.63;4973598;28;19961;-90
2024/01/27 06:57:44;;;;;;;;;;;;;;;5.50;49.32;100026.16;4974801;28;19921;-91
2024/01/27 07:00:14;;;;;;;;;;;;;;;5.56;49.38;100025.63;4957258;28;20005;-89
2024/01/27 07:02:39;;;;;;;;;;;;;;;5.64;49.73;100029.22;4975122;28;19922;-90
2024/01/27 07:05:05;;;;;;;;;;;;;;;5.69;49.41;100026.19;4973388;28;20495;-89
2024/01/27 07:07:31;;;;;;;;;;;;;;;5.73;49.83;100033.66;4974360;28;19920;-90
2024/01/27 07:09:58;;;;;;;;;;;;;;;5.72;49.25;100044.28;4974147;28;20000;-90
2024/01/27 07:12:23;;;;;;;;;;;;;;;5.67;50.02;100047.28;4972690;28;19915;-88
2024/01/27 07:14:49;;;;;;;;;;;;;;;5.65;50.61;100040.53;4972786;28;19925;-88
2024/01/27 07:17:14;;;;;;;;;;;;;;;5.59;50.67;100041.91;4972904;28;20276;-85
2024/01/27 07:19:39;;;;;;;;;;;;;;;5.58;51.09;100039.41;4956636;28;19982;-89
2024/01/27 07:22:05;;;;;;;;;;;;;;;5.54;51.32;100032.78;4972558;28;19918;-88
2024/01/27 07:24:30;;;;;;;;;;;;;;;5.54;51.78;100036.22;4972733;28;19922;-91
2024/01/27 07:26:55;;;;;;;;;;;;;;;5.54;52.41;100033.59;4972474;28;19914;-91
2024/01/27 07:29:21;;;;;;;;;;;;;;;5.55;52.18;100031.81;4972563;28;20439;-91
2024/01/27 07:31:47;;;;;;;;;;;;;;;5.54;52.33;100028.38;4974098;28;19914;-90
2024/01/27 07:34:12;;;;;;;;;;;;;;;5.56;53.01;100036.09;4972628;28;19961;-91
2024/01/27 07:36:37;;;;;;;;;;;;;;;5.58;53.35;100034.16;4972797;28;19948;-92
2024/01/27 07:39:04;;;;;;;;;;;;;;;5.59;54.23;100038.44;4974614;28;19918;-92
2024/01/27 07:41:30;;;;;;;;;;;;;;;5.61;54.30;100044.38;4983776;28;19941;-89
2024/01/27 07:43:55;;;;;;;;;;;;;;;5.61;54.40;100034.72;4966304;28;19922;-90
2024/01/27 07:46:22;;;;;;;;;;;;;;;5.63;54.69;100045.06;4972710;28;19914;-90
2024/01/27 07:48:47;;;;;;;;;;;;;;;5.64;54.44;100038.88;4972784;28;19915;-91
2024/01/27 07:51:13;;;;;;;;;;;;;;;5.68;54.33;100032.41;4974053;28;19914;-90
2024/01/27 07:53:38;;;;;;;;;;;;;;;5.73;54.27;100035.44;4956217;28;19925;-90
2024/01/27 07:56:04;;;;;;;;;;;;;;;5.72;53.99;100032.00;4973347;28;19913;-91
2024/01/27 07:58:29;;;;;;;;;;;;;;;5.75;54.87;100026.50;4973240;28;19925;-89
2024/01/27 08:00:54;;;;;;;;;;;;;;;5.79;56.50;100026.22;4971908;28;19921;-89
2024/01/27 08:03:20;;;;;;;;;;;;;;;5.84;55.35;100018.78;4971988;28;19918;-89
2024/01/27 08:05:45;;;;;;;;;;;;;;;5.86;56.38;100022.91;4956016;28;19921;-89
2024/01/27 08:08:10;;;;;;;;;;;;;;;5.90;57.56;100019.09;4973267;28;19914;-89
2024/01/27 08:10:36;;;;;;;;;;;;;;;5.95;56.21;100016.91;4955915;28;20403;-90
2024/01/27 08:13:02;;;;;;;;;;;;;;;5.96;55.63;100007.25;4971837;28;20400;-90
2024/01/27 08:15:27;;;;;;;;;;;;;;;6.01;57.98;100013.75;4973016;28;19952;-89
2024/01/27 08:17:52;;;;;;;;;;;;;;;6.05;56.30;100015.13;4972867;28;19949;-89
2024/01/27 08:20:18;;;;;;;;;;;;;;;6.10;57.33;100008.66;4971698;28;19918;-90
2024/01/27 08:22:43;;;;;;;;;;;;;;;6.13;57.44;99997.88;4955957;28;20374;-89
2024/01/27 08:25:08;;;;;;;;;;;;;;;6.14;57.60;99999.53;4973454;28;20387;-88
2024/01/27 08:27:34;;;;;;;;;;;;;;;6.13;56.77;100006.56;4956025;28;19914;-89
2024/01/27 08:29:59;;;;;;;;;;;;;;;6.13;57.75;99997.88;4973289;28;20455;-88
2024/01/27 08:32:24;;;;;;;;;;;;;;;6.12;56.12;99989.19;4973184;28;19920;-90
2024/01/27 08:34:49;;;;;;;;;;;;;;;6.13;55.44;99987.41;4973205;28;19922;-88
2024/01/27 08:37:18;;;;;;;;;;;;;;;6.10;56.15;99971.94;4973130;28;20315;-88
2024/01/27 08:39:44;;;;;;;;;;;;;;;6.07;58.34;99966.97;4973198;28;19918;-89
2024/01/27 08:42:09;;;;;;;;;;;;;;;6.08;59.03;99956.34;4973076;28;20315;-88
2024/01/27 08:44:35;;;;;;;;;;;;;;;6.11;56.79;99948.22;4973322;28;19914;-90
2024/01/27 08:47:00;;;;;;;;;;;;;;;6.16;58.21;99946.00;4971863;28;20025;-88
2024/01/27 08:49:25;;;;;;;;;;;;;;;6.21;58.21;99941.16;4955605;28;19957;-90
2024/01/27 08:51:50;;;;;;;;;;;;;;;6.24;59.46;99942.69;4973079;28;19918;-88
2024/01/27 08:54:16;;;;;;;;;;;;;;;6.24;58.88;99933.03;4973115;28;19964;-89
2024/01/27 08:56:41;;;;;;;;;;;;;;;6.28;58.54;99923.06;4955819;28;20375;-91
2024/01/27 08:59:06;;;;;;;;;;;;;;;6.33;57.86;99934.78;4971692;28;19921;-89
2024/01/27 09:01:32;;;;;;;;;;;;;;;6.37;57.58;99920.44;4971526;28;19964;-92
2024/01/27 09:03:57;;;;;;;;;;;;;;;6.37;57.86;99925.66;4972883;28;20009;-91
2024/01/27 09:06:22;;;;;;;;;;;;;;;6.43;57.50;99923.44;4972849;28;19986;-89
2024/01/27 09:08:48;;;;;;;;;;;;;;;6.48;59.17;99934.34;4955410;28;20376;-91
2024/01/27 09:11:13;;;;;;;;;;;;;;;6.54;57.91;99925.91;4973346;28;19914;-89
2024/01/27 09:13:38;;;;;;;;;;;;;;;6.60;56.50;99933.19;4959271;28;19918;-89
2024/01/27 09:16:04;;;;;;;;;;;;;;;6.61;58.59;99934.84;4975176;28;19914;-90
2024/01/27 09:18:29;;;;;;;;;;;;;;;6.60;61.39;99949.78;4959189;28;19921;-90
2024/01/27 09:20:54;;;;;;;;;;;;;;;6.59;59.25;99944.66;4975229;28;19914;-92
2024/01/27 09:23:20;;;;;;;;;;;;;;;6.56;57.81;99955.44;4959222;28;20288;-90
2024/01/27 09:25:45;;;;;;;;;;;;;;;6.52;61.70;99946.22;4975199;28;19914;-92
2024/01/27 09:28:11;;;;;;;;;;;;;;;6.54;61.26;99949.50;4976632;28;19914;-90
2024/01/27 09:30:37;;;;;;;;;;;;;;;6.50;61.52;99964.72;4975089;28;19914;-90
2024/01/27 09:33:02;;;;;;;;;;;;;;;6.52;60.68;99944.41;4975278;28;19921;-91
2024/01/27 09:35:27;;;;;;;;;;;;;;;6.55;59.89;99957.25;4976264;28;20300;-92
2024/01/27 09:37:53;;;;;;;;;;;;;;;6.56;61.85;99961.53;4975213;28;19914;-92
2024/01/27 09:40:20;;;;;;;;;;;;;;;6.58;61.74;99961.38;4975156;28;20411;-92
2024/01/27 09:42:50;;;;;;;;;;;;;;;6.59;61.42;99956.00;4976609;28;19918;-92
2024/01/27 09:45:15;;;;;;;;;;;;;;;6.61;61.65;99942.72;4974922;28;19972;-92
2024/01/27 09:47:42;;;;;;;;;;;;;;;6.63;61.73;99948.66;4975041;28;19917;-92
2024/01/27 09:50:08;;;;;;;;;;;;;;;6.63;61.55;99938.16;4975195;28;19910;-92
2024/01/27 09:52:34;;;;;;;;;;;;;;;6.63;60.83;99953.91;4959109;28;19914;-90
2024/01/27 09:54:59;;;;;;;;;;;;;;;6.63;61.44;99930.28;4957438;28;19944;-92
2024/01/27 09:57:24;;;;;;;;;;;;;;;6.62;58.70;99926.84;4976009;28;19914;-91
2024/01/27 09:59:50;;;;;;;;;;;;;;;6.62;61.05;99937.34;4975190;28;19914;-92
2024/01/27 10:02:17;;;;;;;;;;;;;;;6.64;60.60;99937.19;4974762;28;19918;-92
2024/01/27 10:04:43;;;;;;;;;;;;;;;6.64;61.70;99935.41;4958535;28;19918;-92
2024/01/27 10:07:09;;;;;;;;;;;;;;;6.69;61.25;99932.38;4976126;28;19910;-92
2024/01/27 10:09:34;;;;;;;;;;;;;;;6.72;61.29;99932.09;4974942;28;19918;-92
2024/01/27 10:12:01;;;;;;;;;;;;;;;6.75;61.38;99921.31;4975884;28;19973;-91
2024/01/27 10:14:26;;;;;;;;;;;;;;;6.80;61.43;99926.13;4974721;28;19961;-91
2024/01/27 10:16:51;;;;;;;;;;;;;;;6.85;62.58;99922.09;4975365;28;19960;-92
2024/01/27 10:19:17;;;;;;;;;;;;;;;6.86;62.31;99913.25;4975512;28;20395;-92
2024/01/27 10:21:43;;;;;;;;;;;;;;;6.93;59.30;99910.88;4974261;28;19914;-92
2024/01/27 10:24:08;;;;;;;;;;;;;;;6.97;61.44;99910.44;4974706;28;19922;-91
2024/01/27 10:26:34;;;;;;;;;;;;;;;7.02;60.36;99902.09;4974327;28;20001;-92
2024/01/27 10:29:01;;;;;;;;;;;;;;;7.07;61.57;99905.13;4958159;28;19914;-92
2024/01/27 10:31:27;;;;;;;;;;;;;;;7.12;59.39;99895.00;4974217;28;19922;-91
2024/01/27 10:33:53;;;;;;;;;;;;;;;7.16;61.16;99887.66;4974324;28;19922;-92
2024/01/27 10:36:18;;;;;;;;;;;;;;;7.21;61.54;99880.16;4974090;28;19914;-91
2024/01/27 10:38:44;;;;;;;;;;;;;;;7.26;62.47;99880.53;4973885;28;20387;-92
2024/01/27 10:41:10;;;;;;;;;;;;;;;7.32;62.60;99870.28;4957844;28;19972;-92
2024/01/27 10:43:38;;;;;;;;;;;;;;;7.40;59.96;99871.31;4973700;28;19918;-90
2024/01/27 10:46:07;;;;;;;;;;;;;;;7.48;61.13;99861.75;4973761;28;20025;-91
2024/01/27 10:48:36;;;;;;;;;;;;;;;7.62;61.18;99850.69;4957500;28;19914;-91
2024/01/27 10:51:08;;;;;;;;;;;;;;;7.80;59.63;99860.38;4982851;28;19914;-90
2024/01/27 10:53:35;;;;;;;;;;;;;;;8.01;57.91;99863.47;4977091;28;20450;-92
2024/01/27 10:56:01;;;;;;;;;;;;;;;8.14;57.38;99860.44;4973673;28;19981;-91
2024/01/27 10:58:28;;;;;;;;;;;;;;;8.32;56.54;99860.41;4975029;28;19915;-92
2024/01/27 11:00:53;;;;;;;;;;;;;;;8.44;57.35;99861.84;4973563;28;19921;-91
2024/01/27 11:03:21;;;;;;;;;;;;;;;8.53;56.20;99855.63;4973392;28;19922;-91
2024/01/27 11:05:46;;;;;;;;;;;;;;;8.57;56.59;99859.59;4974591;28;20315;-91
2024/01/27 11:08:13;;;;;;;;;;;;;;;8.65;56.28;99858.81;4974410;28;19914;-92
2024/01/27 11:10:38;;;;;;;;;;;;;;;8.69;56.16;99865.41;4974248;28;19914;-91
2024/01/27 11:13:04;;;;;;;;;;;;;;;8.70;56.52;99864.41;4972944;28;19925;-91
2024/01/27 11:15:30;;;;;;;;;;;;;;;8.71;55.84;99864.25;4972959;28;19914;-91
2024/01/27 11:18:04;;;;;;;;;;;;;;;8.70;56.02;99851.25;4956710;28;20406;-91
2024/01/27 11:20:33;;;;;;;;;;;;;;;8.79;55.43;99850.31;4974096;28;19953;-91
2024/01/27 11:23:12;;;;;;;;;;;;;;;8.90;56.21;99852.66;4973102;28;19918;-91
2024/01/27 11:25:37;;;;;;;;;;;;;;;9.04;55.61;99841.53;4973268;28;19914;-88
2024/01/27 11:28:11;;;;;;;;;;;;;;;9.11;53.71;99844.34;4974443;28;19981;-88
2024/01/27 11:30:39;;;;;;;;;;;;;;;9.16;53.60;99856.03;4972945;28;19984;-89
2024/01/27 11:33:05;;;;;;;;;;;;;;;9.19;52.89;99833.81;4956858;28;19918;-88
2024/01/27 11:35:30;;;;;;;;;;;;;;;9.21;51.32;99847.66;4971942;28;19993;-89
2024/01/27 11:37:55;;;;;;;;;;;;;;;9.28;51.92;99851.28;4972626;28;20363;-88
2024/01/27 11:40:21;;;;;;;;;;;;;;;9.31;51.64;99850.16;4974232;28;20392;-88
2024/01/27 11:43:02;;;;;;;;;;;;;;;9.32;50.87;99849.16;4974024;28;19918;-89
2024/01/27 11:45:32;;;;;;;;;;;;;;;9.33;50.33;99840.25;4973914;28;19918;-88
2024/01/27 11:47:57;;;;;;;;;;;;;;;9.36;49.64;99846.03;4974010;28;19910;-87
2024/01/27 11:50:23;;;;;;;;;;;;;;;9.39;49.81;99858.06;4974026;28;20285;-88
2024/01/27 11:52:48;;;;;;;;;;;;;;;9.41;50.16;99845.53;4956633;28;19914;-89
2024/01/27 11:55:15;;;;;;;;;;;;;;;9.50;49.88;99860.38;4973728;28;19921;-88
2024/01/27 11:57:40;;;;;;;;;;;;;;;9.54;48.96;99859.06;4972535;28;19914;-88
2024/01/27 12:00:06;;;;;;;;;;;;;;;9.62;49.86;99860.88;4974032;28;19998;-88
2024/01/27 12:02:31;;;;;;;;;;;;;;;9.63;49.96;99855.44;4972503;28;19957;-89
2024/01/27 12:04:57;;;;;;;;;;;;;;;9.60;49.38;99860.22;4972521;28;19914;-88
2024/01/27 12:07:22;;;;;;;;;;;;;;;9.61;49.86;99861.88;4956031;28;19914;-88
2024/01/27 12:09:50;;;;;;;;;;;;;;;9.54;49.44;99870.44;4956045;28;19914;-88
2024/01/27 12:12:16;;;;;;;;;;;;;;;9.49;49.62;99882.44;4955868;28;20319;-88
2024/01/27 12:14:45;;;;;;;;;;;;;;;9.51;50.14;99876.03;4955898;28;19924;-89
2024/01/27 12:17:11;;;;;;;;;;;;;;;9.40;49.22;99886.88;4971917;28;19914;-89
2024/01/27 12:19:37;;;;;;;;;;;;;;;9.44;49.18;99882.13;4971824;28;19914;-89
2024/01/27 12:22:03;;;;;;;;;;;;;;;9.44;49.41;99880.31;4973018;28;20311;-89
2024/01/27 12:24:29;;;;;;;;;;;;;;;9.48;49.40;99883.44;4971935;28;19914;-88
2024/01/27 12:26:56;;;;;;;;;;;;;;;9.47;50.03;99887.06;4973333;28;19914;-89
2024/01/27 12:29:22;;;;;;;;;;;;;;;9.44;50.25;99892.66;4973332;28;19929;-88
2024/01/27 12:31:47;;;;;;;;;;;;;;;9.38;49.89;99891.50;4973153;28;19914;-89
2024/01/27 12:34:13;;;;;;;;;;;;;;;9.35;49.99;99883.91;4971596;28;19922;-89
2024/01/27 12:36:42;;;;;;;;;;;;;;;9.36;49.84;99882.94;4956073;28;20284;-89
2024/01/27 12:39:08;;;;;;;;;;;;;;;9.31;50.15;99889.66;4971988;28;19911;-89
2024/01/27 12:41:34;;;;;;;;;;;;;;;9.31;50.13;99892.31;4971875;28;20311;-88
2024/01/27 12:43:59;;;;;;;;;;;;;;;9.33;50.29;99887.69;4971693;28;19929;-89